createdAt,value
2022-12-11T00:00:33.081Z,14.85
2022-12-11T00:02:38.315Z,16.33
2022-12-11T00:04:44.427Z,15.73
2022-12-11T00:06:50.510Z,15.00
2022-12-11T00:08:54.212Z,15.15
2022-12-11T00:10:56.783Z,14.32
2022-12-11T00:12:59.408Z,13.55
2022-12-11T00:15:01.820Z,13.82
2022-12-11T00:17:07.453Z,15.75
2022-12-11T00:19:15.200Z,12.50
2022-12-11T00:21:20.343Z,13.88
2022-12-11T00:23:23.176Z,14.20
2022-12-11T00:25:25.741Z,14.85
2022-12-11T00:27:28.984Z,13.23
2022-12-11T00:29:31.628Z,12.95
2022-12-11T00:31:34.904Z,14.95
2022-12-11T00:33:37.345Z,14.10
2022-12-11T00:35:40.072Z,14.10
2022-12-11T00:37:45.342Z,13.38
2022-12-11T00:39:51.210Z,13.25
2022-12-11T00:41:53.704Z,16.17
2022-12-11T00:43:56.275Z,14.55
2022-12-11T00:45:58.989Z,14.43
2022-12-11T00:48:01.477Z,14.77
2022-12-11T00:50:06.566Z,13.45
2022-12-11T00:52:10.921Z,13.68
2022-12-11T00:56:21.803Z,13.52
2022-12-11T00:58:25.647Z,13.50
2022-12-11T01:00:28.184Z,15.50
2022-12-11T01:02:30.825Z,14.00
2022-12-11T01:04:36.214Z,14.95
2022-12-11T01:06:40.182Z,13.43
2022-12-11T01:08:42.943Z,14.55
2022-12-11T01:10:48.266Z,13.07
2022-12-11T01:12:51.052Z,14.55
2022-12-11T01:14:54.194Z,14.93
2022-12-11T01:16:56.713Z,14.25
2022-12-11T01:18:59.703Z,13.25
2022-12-11T01:21:13.842Z,13.32
2022-12-11T01:23:16.601Z,13.52
2022-12-11T01:25:19.370Z,13.68
2022-12-11T01:27:24.440Z,13.77
2022-12-11T01:29:26.977Z,13.13
2022-12-11T01:31:29.665Z,13.90
2022-12-11T01:33:32.378Z,13.70
2022-12-11T01:35:34.968Z,13.23
2022-12-11T01:37:37.422Z,14.85
2022-12-11T01:39:43.242Z,15.30
2022-12-11T01:41:45.622Z,13.75
2022-12-11T01:44:05.678Z,14.80
2022-12-11T01:46:08.330Z,13.90
2022-12-11T01:48:14.022Z,15.30
2022-12-11T01:50:17.500Z,14.05
2022-12-11T01:52:22.539Z,13.13
2022-12-11T01:54:30.215Z,15.63
2022-12-11T01:56:36.324Z,14.48
2022-12-11T01:58:43.322Z,14.32
2022-12-11T02:00:48.681Z,13.93
2022-12-11T02:02:51.412Z,11.75
2022-12-11T02:04:54.642Z,12.50
2022-12-11T02:07:00.112Z,13.68
2022-12-11T02:09:06.684Z,14.98
2022-12-11T02:11:16.603Z,12.02
2022-12-11T02:13:26.077Z,13.30
2022-12-11T02:15:34.075Z,13.88
2022-12-11T02:17:51.153Z,13.73
2022-12-11T02:20:04.002Z,13.85
2022-12-11T02:22:13.645Z,15.02
2022-12-11T02:24:32.475Z,14.52
2022-12-11T02:26:57.576Z,14.48
2022-12-11T02:31:12.987Z,13.80
2022-12-11T02:33:16.603Z,15.40
2022-12-11T02:35:22.382Z,13.82
2022-12-11T02:37:30.016Z,14.43
2022-12-11T02:39:35.938Z,15.15
2022-12-11T02:41:41.238Z,14.45
2022-12-11T02:43:44.677Z,13.63
2022-12-11T02:45:55.838Z,14.10
2022-12-11T02:48:01.454Z,15.48
2022-12-11T02:50:12.716Z,13.80
2022-12-11T02:52:19.335Z,13.13
2022-12-11T02:54:26.777Z,13.48
2022-12-11T02:56:34.255Z,14.95
2022-12-11T02:58:39.948Z,15.02
2022-12-11T03:00:44.117Z,16.23
2022-12-11T03:02:49.550Z,15.18
2022-12-11T03:04:52.501Z,15.40
2022-12-11T03:07:00.136Z,13.27
2022-12-11T03:09:03.767Z,13.10
2022-12-11T03:11:09.936Z,14.95
2022-12-11T03:13:14.789Z,14.80
2022-12-11T03:15:20.581Z,13.27
2022-12-11T03:17:28.062Z,14.13
2022-12-11T03:19:37.366Z,13.38
2022-12-11T03:21:45.688Z,14.27
2022-12-11T03:23:55.063Z,15.13
2022-12-11T03:26:00.941Z,14.25
2022-12-11T03:28:11.015Z,12.68
2022-12-11T03:30:16.958Z,12.75
2022-12-11T03:32:25.581Z,14.90
2022-12-11T03:34:36.964Z,15.75
2022-12-11T03:36:40.131Z,14.35
2022-12-11T03:38:49.434Z,15.93
2022-12-11T03:40:56.436Z,13.63
2022-12-11T03:43:00.752Z,13.85
2022-12-11T03:45:04.828Z,15.27
2022-12-11T03:47:09.938Z,13.32
2022-12-11T03:49:19.570Z,15.88
2022-12-11T03:51:25.715Z,14.38
2022-12-11T03:53:28.769Z,15.75
2022-12-11T03:55:33.280Z,15.07
2022-12-11T03:57:38.215Z,14.68
2022-12-11T03:59:41.196Z,13.80
2022-12-11T04:01:52.960Z,13.85
2022-12-11T04:04:00.917Z,13.82
2022-12-11T04:06:03.810Z,13.80
2022-12-11T04:08:16.777Z,13.40
2022-12-11T04:10:20.145Z,13.90
2022-12-11T04:12:22.805Z,13.30
2022-12-11T04:14:44.702Z,13.65
2022-12-11T04:16:47.467Z,13.43
2022-12-11T04:19:08.423Z,12.93
2022-12-11T04:21:30.326Z,13.90
2022-12-11T04:23:56.706Z,12.77
2022-12-11T04:26:05.227Z,13.40
2022-12-11T04:28:07.764Z,13.35
2022-12-11T04:30:14.589Z,14.00
2022-12-11T04:32:18.143Z,13.68
2022-12-11T04:34:20.680Z,13.50
2022-12-11T04:36:25.434Z,13.82
2022-12-11T04:38:28.248Z,12.73
2022-12-11T04:40:33.675Z,11.32
2022-12-11T04:42:36.385Z,13.70
2022-12-11T04:44:38.980Z,15.10
2022-12-11T04:46:41.698Z,14.30
2022-12-11T04:48:45.317Z,14.57
2022-12-11T04:50:47.852Z,12.95
2022-12-11T04:52:54.544Z,14.05
2022-12-11T04:54:57.037Z,15.98
2022-12-11T04:57:04.041Z,15.00
2022-12-11T04:59:06.708Z,15.02
2022-12-11T05:01:10.112Z,12.90
2022-12-11T05:03:13.087Z,13.75
2022-12-11T05:05:15.726Z,13.45
2022-12-11T05:07:18.456Z,12.82
2022-12-11T05:09:22.891Z,13.70
2022-12-11T05:11:29.351Z,13.80
2022-12-11T05:13:34.768Z,12.73
2022-12-11T05:15:43.409Z,13.60
2022-12-11T05:17:46.029Z,14.32
2022-12-11T05:19:49.908Z,14.55
2022-12-11T05:21:52.499Z,12.73
2022-12-11T05:23:57.417Z,14.20
2022-12-11T05:26:02.180Z,13.65
2022-12-11T05:28:04.901Z,12.73
2022-12-11T05:30:11.464Z,14.82
2022-12-11T05:32:14.250Z,13.48
2022-12-11T05:34:16.778Z,14.10
2022-12-11T05:36:22.029Z,13.13
2022-12-11T05:38:25.533Z,13.68
2022-12-11T05:40:28.076Z,14.48
2022-12-11T05:42:30.543Z,14.73
2022-12-11T05:44:39.945Z,14.05
2022-12-11T05:46:45.423Z,15.57
2022-12-11T05:48:49.673Z,13.02
2022-12-11T05:50:58.700Z,14.35
2022-12-11T05:53:05.369Z,14.98
2022-12-11T05:55:09.906Z,14.50
2022-12-11T05:57:12.563Z,12.90
2022-12-11T05:59:15.151Z,14.30
2022-12-11T06:01:20.841Z,13.90
2022-12-11T06:03:29.505Z,14.02
2022-12-11T06:05:32.136Z,13.82
2022-12-11T06:07:34.824Z,14.13
2022-12-11T06:09:37.377Z,14.50
2022-12-11T06:11:40.782Z,12.95
2022-12-11T06:13:46.463Z,12.50
2022-12-11T06:15:52.874Z,15.30
2022-12-11T06:17:55.440Z,14.23
2022-12-11T06:20:00.557Z,13.90
2022-12-11T06:22:03.256Z,13.10
2022-12-11T06:24:10.455Z,13.43
2022-12-11T06:26:14.401Z,14.68
2022-12-11T06:28:17.664Z,15.15
2022-12-11T06:30:38.392Z,15.07
2022-12-11T06:32:44.535Z,13.65
2022-12-11T06:34:47.564Z,14.90
2022-12-11T06:36:53.109Z,13.52
2022-12-11T06:38:56.814Z,13.95
2022-12-11T06:41:02.023Z,13.93
2022-12-11T06:43:06.969Z,13.82
2022-12-11T06:45:11.296Z,12.25
2022-12-11T06:47:14.883Z,14.57
2022-12-11T06:49:17.577Z,14.25
2022-12-11T06:51:22.916Z,13.73
2022-12-11T06:53:30.557Z,12.80
2022-12-11T06:55:36.140Z,13.02
2022-12-11T06:57:38.833Z,13.27
2022-12-11T06:59:41.509Z,14.35
2022-12-11T07:01:48.504Z,13.35
2022-12-11T07:03:52.976Z,13.98
2022-12-11T07:06:03.100Z,13.50
2022-12-11T07:08:07.480Z,13.75
2022-12-11T07:10:23.756Z,13.48
2022-12-11T07:12:27.362Z,14.23
2022-12-11T07:14:30.618Z,12.45
2022-12-11T07:16:33.387Z,12.75
2022-12-11T07:18:42.381Z,13.57
2022-12-11T07:20:48.918Z,14.25
2022-12-11T07:22:51.498Z,13.50
2022-12-11T07:24:55.544Z,15.95
2022-12-11T07:29:05.034Z,13.52
2022-12-11T07:31:08.147Z,13.00
2022-12-11T07:33:10.940Z,13.00
2022-12-11T07:35:13.817Z,13.27
2022-12-11T07:37:16.537Z,12.85
2022-12-11T07:39:19.064Z,13.90
2022-12-11T07:41:23.210Z,11.85
2022-12-11T07:43:32.408Z,12.57
2022-12-11T07:45:35.226Z,11.45
2022-12-11T07:47:37.964Z,12.80
2022-12-11T07:49:43.012Z,13.85
2022-12-11T07:51:45.436Z,13.25
2022-12-11T07:53:49.735Z,14.85
2022-12-11T07:55:56.041Z,13.40
2022-12-11T07:57:58.480Z,12.98
2022-12-11T08:03:05.403Z,15.40
2022-12-11T08:05:09.283Z,14.18
2022-12-11T08:07:14.822Z,12.98
2022-12-11T08:09:21.270Z,12.85
2022-12-11T08:11:24.264Z,10.60
2022-12-11T08:13:27.757Z,12.88
2022-12-11T08:15:30.579Z,13.90
2022-12-11T08:17:43.806Z,12.80
2022-12-11T08:19:49.184Z,13.05
2022-12-11T08:21:51.628Z,13.82
2022-12-11T08:23:55.123Z,13.55
2022-12-11T08:26:03.336Z,12.80
2022-12-11T08:28:12.565Z,12.40
2022-12-11T08:30:15.338Z,12.75
2022-12-11T08:32:18.989Z,14.00
2022-12-11T08:34:21.964Z,13.32
2022-12-11T08:36:27.314Z,11.55
2022-12-11T08:38:30.545Z,12.82
2022-12-11T08:40:33.078Z,11.80
2022-12-11T08:42:35.786Z,13.73
2022-12-11T08:44:38.486Z,14.73
2022-12-11T08:46:40.937Z,13.57
2022-12-11T08:48:46.388Z,14.13
2022-12-11T08:50:51.209Z,13.23
2022-12-11T08:52:56.643Z,13.52
2022-12-11T08:54:59.121Z,13.68
2022-12-11T08:57:01.788Z,13.18
2022-12-11T08:59:06.354Z,13.18
2022-12-11T09:01:17.150Z,13.63
2022-12-11T09:03:19.725Z,15.40
2022-12-11T09:05:22.197Z,14.30
2022-12-11T09:07:24.710Z,14.85
2022-12-11T09:09:29.821Z,13.10
2022-12-11T09:11:34.244Z,14.65
2022-12-11T09:13:38.755Z,13.32
2022-12-11T09:15:48.613Z,13.07
2022-12-11T09:17:51.290Z,14.45
2022-12-11T09:19:53.762Z,14.65
2022-12-11T09:21:56.832Z,14.10
2022-12-11T09:24:01.107Z,15.32
2022-12-11T09:28:09.340Z,15.18
2022-12-11T09:30:13.031Z,14.13
2022-12-11T09:32:15.678Z,15.30
2022-12-11T09:34:23.643Z,14.43
2022-12-11T09:36:30.412Z,15.20
2022-12-11T09:38:33.622Z,15.73
2022-12-11T09:40:40.953Z,14.65
2022-12-11T09:42:54.651Z,13.98
2022-12-11T09:45:01.749Z,15.07
2022-12-11T09:47:24.836Z,14.30
2022-12-11T09:49:35.640Z,15.07
2022-12-11T09:51:43.630Z,14.30
2022-12-11T09:53:46.895Z,14.00
2022-12-11T09:55:55.515Z,13.48
2022-12-11T09:58:12.033Z,16.45
2022-12-11T10:00:20.812Z,14.45
2022-12-11T10:02:31.045Z,14.93
2022-12-11T10:04:49.528Z,13.70
2022-12-11T10:07:03.141Z,14.10
2022-12-11T10:09:15.776Z,14.68
2022-12-11T10:11:41.974Z,13.90
2022-12-11T10:13:56.660Z,13.77
2022-12-11T10:16:06.031Z,13.65
2022-12-11T10:18:15.965Z,15.07
2022-12-11T10:20:23.269Z,13.55
2022-12-11T10:22:31.342Z,12.80
2022-12-11T10:27:15.507Z,12.57
2022-12-11T10:29:22.975Z,15.55
2022-12-11T10:31:38.321Z,15.18
2022-12-11T10:33:50.040Z,15.73
2022-12-11T10:35:54.747Z,14.32
2022-12-11T10:38:05.215Z,14.77
2022-12-11T10:40:27.152Z,14.75
2022-12-11T10:42:29.704Z,13.30
2022-12-11T10:44:35.262Z,15.38
2022-12-11T10:46:38.002Z,16.88
2022-12-11T10:48:46.753Z,16.00
2022-12-11T10:50:58.256Z,15.38
2022-12-11T10:53:05.221Z,14.35
2022-12-11T10:55:21.442Z,15.98
2022-12-11T10:57:29.548Z,15.98
2022-12-11T10:59:39.337Z,15.02
2022-12-11T11:01:47.671Z,15.30
2022-12-11T11:03:57.660Z,14.38
2022-12-11T11:06:05.713Z,14.75
2022-12-11T11:08:15.104Z,15.93
2022-12-11T11:10:18.828Z,16.67
2022-12-11T11:12:24.419Z,14.50
2022-12-11T11:14:28.445Z,14.63
2022-12-11T11:16:37.536Z,15.77
2022-12-11T11:18:41.334Z,15.73
2022-12-11T11:20:48.032Z,16.42
2022-12-11T11:22:53.665Z,16.40
2022-12-11T11:24:58.129Z,14.10
2022-12-11T11:27:16.494Z,14.02
2022-12-11T11:29:29.148Z,15.30
2022-12-11T11:31:35.672Z,16.42
2022-12-11T11:33:48.090Z,16.20
2022-12-11T11:35:53.632Z,15.07
2022-12-11T11:38:04.273Z,13.60
2022-12-11T11:40:14.156Z,14.82
2022-12-11T11:42:27.574Z,15.57
2022-12-11T11:44:34.025Z,15.15
2022-12-11T11:46:43.787Z,15.20
2022-12-11T11:49:00.394Z,16.33
2022-12-11T11:51:13.658Z,14.48
2022-12-11T11:53:20.998Z,14.68
2022-12-11T11:55:35.537Z,16.27
2022-12-11T11:59:51.256Z,14.55
2022-12-11T12:02:00.569Z,14.95
2022-12-11T12:04:04.525Z,15.85
2022-12-11T12:06:15.530Z,16.85
2022-12-11T12:08:26.716Z,16.23
2022-12-11T12:10:34.997Z,15.88
2022-12-11T12:12:45.517Z,15.13
2022-12-11T12:15:02.016Z,16.10
2022-12-11T12:17:20.046Z,14.27
2022-12-11T12:19:41.438Z,16.13
2022-12-11T12:21:49.381Z,16.80
2022-12-11T12:24:11.715Z,15.18
2022-12-11T12:26:23.750Z,16.85
2022-12-11T12:28:34.719Z,14.88
2022-12-11T12:30:47.824Z,16.55
2022-12-11T12:33:03.066Z,16.02
2022-12-11T12:35:13.289Z,15.07
2022-12-11T12:37:24.684Z,14.20
2022-12-11T12:39:37.831Z,15.82
2022-12-11T12:44:17.167Z,17.02
2022-12-11T12:46:29.107Z,14.88
2022-12-11T12:48:34.602Z,17.42
2022-12-11T12:50:47.653Z,14.85
2022-12-11T12:52:54.198Z,15.82
2022-12-11T12:55:16.229Z,16.95
2022-12-11T12:57:19.587Z,15.95
2022-12-11T12:59:24.379Z,16.75
2022-12-11T13:01:29.188Z,15.55
2022-12-11T13:03:38.129Z,15.13
2022-12-11T13:05:43.417Z,15.45
2022-12-11T13:07:59.653Z,15.13
2022-12-11T13:10:07.163Z,18.13
2022-12-11T13:12:15.748Z,15.45
2022-12-11T13:14:28.558Z,15.45
2022-12-11T13:16:36.923Z,14.95
2022-12-11T13:18:44.221Z,14.93
2022-12-11T13:20:52.219Z,14.68
2022-12-11T13:23:08.826Z,16.95
2022-12-11T13:25:24.369Z,15.20
2022-12-11T13:27:36.802Z,15.38
2022-12-11T13:29:41.875Z,15.70
2022-12-11T13:31:50.165Z,17.23
2022-12-11T13:34:03.386Z,15.98
2022-12-11T13:36:35.938Z,15.88
2022-12-11T13:38:40.017Z,15.95
2022-12-11T13:40:51.758Z,16.23
2022-12-11T13:46:19.883Z,15.48
2022-12-11T13:48:25.839Z,16.88
2022-12-11T13:50:34.621Z,16.92
2022-12-11T13:52:37.724Z,16.30
2022-12-11T13:54:48.293Z,16.40
2022-12-11T13:56:59.215Z,16.45
2022-12-11T13:59:03.293Z,17.00
2022-12-11T14:01:10.976Z,17.00
2022-12-11T14:03:13.907Z,15.38
2022-12-11T14:05:17.425Z,16.35
2022-12-11T14:07:26.492Z,13.75
2022-12-11T14:09:29.463Z,15.75
2022-12-11T14:11:36.024Z,15.85
2022-12-11T14:13:41.942Z,15.30
2022-12-11T14:15:46.353Z,15.65
2022-12-11T14:17:59.544Z,15.25
2022-12-11T14:20:07.456Z,15.48
2022-12-11T14:22:19.790Z,16.63
2022-12-11T14:24:24.883Z,16.02
2022-12-11T14:26:29.582Z,14.98
2022-12-11T14:28:38.158Z,14.93
2022-12-11T14:30:47.204Z,15.43
2022-12-11T14:32:51.455Z,14.85
2022-12-11T14:36:58.215Z,16.00
2022-12-11T14:39:04.976Z,13.30
2022-12-11T14:41:16.710Z,15.20
2022-12-11T14:43:23.520Z,15.40
2022-12-11T14:45:33.473Z,15.77
2022-12-11T14:47:41.586Z,15.15
2022-12-11T14:49:51.422Z,15.90
2022-12-11T14:51:57.199Z,15.93
2022-12-11T14:54:00.416Z,14.75
2022-12-11T14:56:06.178Z,16.50
2022-12-11T14:58:20.869Z,15.40
2022-12-11T15:00:26.853Z,15.45
2022-12-11T15:02:32.721Z,15.50
2022-12-11T15:04:35.276Z,15.98
2022-12-11T15:06:44.979Z,16.15
2022-12-11T15:08:47.442Z,16.83
2022-12-11T15:11:03.637Z,15.63
2022-12-11T15:13:07.528Z,16.08
2022-12-11T15:15:18.667Z,14.40
2022-12-11T15:17:22.020Z,16.83
2022-12-11T15:19:30.360Z,17.00
2022-12-11T15:21:37.793Z,16.88
2022-12-11T15:23:52.016Z,17.13
2022-12-11T15:25:56.709Z,15.25
2022-12-11T15:28:01.551Z,16.30
2022-12-11T15:30:30.074Z,15.30
2022-12-11T15:32:35.611Z,17.48
2022-12-11T15:34:45.407Z,16.05
2022-12-11T15:36:48.642Z,15.63
2022-12-11T15:38:52.626Z,16.27
2022-12-11T15:40:55.673Z,15.25
2022-12-11T15:43:02.422Z,15.13
2022-12-11T15:45:08.314Z,16.38
2022-12-11T15:47:24.080Z,15.25
2022-12-11T15:49:27.067Z,16.38
2022-12-11T15:51:30.678Z,15.95
2022-12-11T15:53:34.469Z,15.38
2022-12-11T15:55:39.283Z,15.27
2022-12-11T15:57:45.446Z,15.52
2022-12-11T15:59:52.540Z,16.65
2022-12-11T16:01:55.850Z,17.60
2022-12-11T16:04:05.232Z,17.03
2022-12-11T16:06:12.381Z,15.45
2022-12-11T16:08:17.129Z,16.13
2022-12-11T16:10:22.383Z,17.98
2022-12-11T16:12:26.150Z,16.33
2022-12-11T16:14:32.269Z,16.10
2022-12-11T16:16:35.916Z,16.10
2022-12-11T16:18:41.321Z,16.73
2022-12-11T16:20:49.485Z,16.17
2022-12-11T16:22:53.062Z,17.05
2022-12-11T16:24:55.920Z,16.45
2022-12-11T16:26:59.450Z,16.10
2022-12-11T16:29:03.079Z,16.50
2022-12-11T16:31:14.140Z,17.98
2022-12-11T16:33:17.253Z,17.48
2022-12-11T16:35:20.579Z,16.83
2022-12-11T16:37:26.477Z,17.10
2022-12-11T16:39:29.950Z,17.75
2022-12-11T16:41:33.227Z,15.90
2022-12-11T16:43:36.236Z,15.68
2022-12-11T16:45:40.137Z,15.60
2022-12-11T16:47:43.451Z,16.67
2022-12-11T16:49:46.261Z,16.90
2022-12-11T16:51:50.027Z,16.33
2022-12-11T16:53:55.534Z,16.58
2022-12-11T16:55:58.452Z,16.08
2022-12-11T16:58:02.016Z,15.45
2022-12-11T17:00:09.321Z,17.15
2022-12-11T17:02:12.733Z,16.15
2022-12-11T17:04:15.851Z,15.80
2022-12-11T17:06:20.459Z,13.95
2022-12-11T17:08:23.625Z,16.77
2022-12-11T17:10:29.018Z,15.80
2022-12-11T17:12:31.697Z,15.30
2022-12-11T17:14:35.183Z,15.25
2022-12-11T17:16:38.490Z,14.27
2022-12-11T17:18:42.275Z,14.75
2022-12-11T17:20:48.381Z,15.75
2022-12-11T17:22:51.534Z,16.50
2022-12-11T17:24:55.622Z,13.70
2022-12-11T17:27:01.350Z,15.20
2022-12-11T17:29:04.984Z,16.88
2022-12-11T17:31:10.177Z,15.30
2022-12-11T17:33:14.318Z,17.00
2022-12-11T17:35:17.520Z,16.77
2022-12-11T17:37:20.635Z,14.50
2022-12-11T17:39:24.117Z,16.40
2022-12-11T17:41:27.112Z,16.70
2022-12-11T17:43:32.717Z,17.02
2022-12-11T17:45:40.584Z,14.32
2022-12-11T17:47:43.816Z,16.33
2022-12-11T17:49:46.954Z,14.63
2022-12-11T17:51:49.840Z,13.80
2022-12-11T17:53:55.712Z,14.18
2022-12-11T17:56:00.694Z,14.90
2022-12-11T17:58:04.148Z,15.57
2022-12-11T18:00:11.623Z,14.13
2022-12-11T18:02:18.058Z,14.20
2022-12-11T18:04:21.269Z,13.70
2022-12-11T18:06:24.049Z,13.98
2022-12-11T18:08:30.288Z,14.02
2022-12-11T18:10:36.405Z,13.43
2022-12-11T18:12:39.759Z,13.50
2022-12-11T18:14:43.071Z,15.45
2022-12-11T18:16:49.027Z,14.63
2022-12-11T18:18:53.216Z,14.48
2022-12-11T18:20:57.361Z,14.20
2022-12-11T18:23:01.465Z,12.30
2022-12-11T18:25:09.658Z,12.05
2022-12-11T18:27:15.632Z,13.10
2022-12-11T18:29:18.698Z,14.23
2022-12-11T18:31:23.067Z,12.25
2022-12-11T18:33:30.349Z,12.85
2022-12-11T18:35:33.862Z,14.07
2022-12-11T18:37:38.177Z,14.30
2022-12-11T18:39:42.091Z,13.43
2022-12-11T18:41:53.849Z,14.05
2022-12-11T18:44:09.767Z,12.65
2022-12-11T18:46:15.275Z,15.13
2022-12-11T18:48:18.629Z,13.77
2022-12-11T18:50:24.249Z,13.18
2022-12-11T18:52:27.418Z,12.15
2022-12-11T18:54:30.480Z,13.23
2022-12-11T18:56:34.949Z,13.88
2022-12-11T19:00:42.642Z,13.40
2022-12-11T19:04:50.107Z,15.20
2022-12-11T19:07:00.886Z,13.57
2022-12-11T19:09:06.815Z,15.20
2022-12-11T19:11:13.819Z,12.15
2022-12-11T19:13:16.798Z,13.70
2022-12-11T19:15:23.797Z,15.02
2022-12-11T19:17:27.165Z,12.25
2022-12-11T19:19:30.010Z,15.52
2022-12-11T19:21:35.677Z,13.25
2022-12-11T19:23:45.226Z,13.95
2022-12-11T19:25:48.841Z,12.73
2022-12-11T19:27:52.166Z,13.43
2022-12-11T19:29:55.821Z,14.07
2022-12-11T19:31:58.588Z,12.88
2022-12-11T19:34:03.006Z,13.98
2022-12-11T19:36:11.422Z,12.55
2022-12-11T19:38:14.980Z,13.43
2022-12-11T19:40:21.898Z,14.10
2022-12-11T19:42:24.824Z,14.60
2022-12-11T19:44:27.965Z,14.52
2022-12-11T19:46:33.610Z,11.80
2022-12-11T19:48:38.074Z,12.45
2022-12-11T19:50:42.127Z,13.57
2022-12-11T19:52:46.555Z,13.07
2022-12-11T19:54:54.056Z,13.73
2022-12-11T19:57:00.182Z,12.80
2022-12-11T19:59:06.602Z,12.98
2022-12-11T20:01:17.598Z,12.38
2022-12-11T20:03:20.787Z,14.18
2022-12-11T20:05:23.844Z,13.68
2022-12-11T20:07:30.683Z,11.38
2022-12-11T20:09:34.926Z,14.40
2022-12-11T20:11:37.971Z,12.90
2022-12-11T20:13:45.876Z,12.90
2022-12-11T20:15:51.618Z,12.70
2022-12-11T20:17:58.587Z,13.10
2022-12-11T20:20:03.285Z,13.43
2022-12-11T20:22:07.520Z,13.45
2022-12-11T20:24:11.728Z,12.93
2022-12-11T20:26:17.276Z,12.10
2022-12-11T20:28:20.090Z,12.85
2022-12-11T20:30:26.937Z,13.30
2022-12-11T20:32:30.418Z,12.98
2022-12-11T20:34:33.573Z,14.18
2022-12-11T20:36:36.892Z,13.90
2022-12-11T20:38:42.434Z,12.73
2022-12-11T20:40:46.747Z,13.40
2022-12-11T20:42:50.049Z,12.27
2022-12-11T20:44:54.096Z,13.67
2022-12-11T20:47:03.529Z,11.88
2022-12-11T20:49:13.387Z,14.05
2022-12-11T20:51:25.226Z,12.57
2022-12-11T20:53:29.115Z,11.85
2022-12-11T20:55:34.568Z,13.27
2022-12-11T20:57:44.887Z,12.02
2022-12-11T20:59:49.809Z,11.75
2022-12-11T21:01:53.449Z,12.07
2022-12-11T21:03:59.882Z,13.18
2022-12-11T21:06:03.462Z,11.98
2022-12-11T21:08:07.364Z,13.02
2022-12-11T21:10:14.217Z,11.73
2022-12-11T21:12:17.372Z,12.68
2022-12-11T21:14:21.008Z,12.27
2022-12-11T21:16:27.316Z,11.80
2022-12-11T21:18:31.066Z,12.50
2022-12-11T21:20:37.015Z,11.20
2022-12-11T21:22:41.110Z,13.88
2022-12-11T21:24:44.304Z,11.85
2022-12-11T21:26:48.104Z,12.80
2022-12-11T21:28:53.165Z,12.60
2022-12-11T21:31:01.553Z,12.43
2022-12-11T21:33:06.020Z,12.65
2022-12-11T21:35:12.058Z,12.27
2022-12-11T21:37:18.672Z,12.00
2022-12-11T21:39:22.077Z,12.30
2022-12-11T21:41:26.241Z,12.02
2022-12-11T21:43:29.339Z,12.05
2022-12-11T21:47:59.706Z,12.45
2022-12-11T21:50:02.511Z,12.18
2022-12-11T21:52:05.942Z,12.02
2022-12-11T21:54:15.680Z,12.23
2022-12-11T21:56:21.503Z,13.15
2022-12-11T21:58:24.217Z,12.02
2022-12-11T22:00:30.098Z,11.98
2022-12-11T22:02:37.491Z,11.43
2022-12-11T22:04:43.819Z,11.73
2022-12-11T22:06:49.120Z,11.93
2022-12-11T22:08:52.655Z,11.40
2022-12-11T22:10:58.153Z,10.95
2022-12-11T22:13:01.630Z,11.23
2022-12-11T22:15:08.824Z,11.10
2022-12-11T22:17:15.052Z,11.65
2022-12-11T22:19:18.431Z,10.38
2022-12-11T22:21:24.713Z,12.45
2022-12-11T22:23:28.530Z,11.50
2022-12-11T22:25:32.605Z,13.40
2022-12-11T22:27:38.345Z,12.88
2022-12-11T22:29:41.402Z,12.23
2022-12-11T22:31:44.490Z,11.45
2022-12-11T22:33:50.076Z,10.63
2022-12-11T22:35:58.718Z,13.27
2022-12-11T22:38:02.649Z,13.15
2022-12-11T22:40:10.498Z,11.27
2022-12-11T22:42:17.152Z,11.13
2022-12-11T22:44:23.272Z,11.65
2022-12-11T22:46:29.868Z,10.88
2022-12-11T22:48:32.967Z,12.57
2022-12-11T22:50:36.926Z,10.70
2022-12-11T22:52:45.204Z,11.63
2022-12-11T22:54:48.421Z,11.38
2022-12-11T22:56:51.426Z,12.88
2022-12-11T22:58:56.396Z,13.43
2022-12-11T23:01:02.957Z,12.15
2022-12-11T23:03:05.404Z,11.73
2022-12-11T23:05:12.660Z,10.98
2022-12-11T23:09:19.714Z,12.27
2022-12-11T23:11:25.933Z,11.45
2022-12-11T23:13:28.347Z,12.45
2022-12-11T23:15:39.002Z,12.82
2022-12-11T23:17:44.097Z,11.45
2022-12-11T23:19:47.300Z,11.98
2022-12-11T23:21:49.743Z,12.25
2022-12-11T23:23:53.028Z,12.27
2022-12-11T23:26:10.895Z,11.80
2022-12-11T23:28:18.308Z,11.30
2022-12-11T23:30:20.737Z,12.05
2022-12-11T23:32:23.209Z,10.85
2022-12-11T23:34:28.245Z,11.57
2022-12-11T23:36:31.093Z,12.23
2022-12-11T23:38:33.696Z,11.25
2022-12-11T23:40:38.295Z,12.02
2022-12-11T23:42:41.127Z,10.40
2022-12-11T23:44:43.451Z,11.43
2022-12-11T23:46:46.195Z,10.85
2022-12-11T23:48:49.359Z,12.95
2022-12-11T23:50:58.715Z,11.60
2022-12-11T23:53:01.247Z,12.57
2022-12-11T23:55:04.006Z,11.63
2022-12-11T23:57:06.512Z,11.07
2022-12-11T23:59:18.627Z,11.05
